Time;durP1;ratioP1;P1;durP2;ratioP2;P2;SDS_P1;SDS_P2;PMS_P1;PMS_P2;Temp;Humidity;BMP_temperature;BMP_pressure;BME280_temperature;BME280_humidity;BME280_pressure;Samples;Min_cycle;Max_cycle;Signal;HPM_P1;HPM_P2
2022/10/21 00:01:12;;;;;;;119.53;68.43;;;;;;;21.87;53.86;101052.03;4830513;29;20058;-79
2022/10/21 00:03:41;;;;;;;125.57;69.13;;;;;;;21.84;53.62;101059.97;4836508;29;20716;-78
2022/10/21 00:06:10;;;;;;;116.35;67.50;;;;;;;21.85;54.31;101058.22;4839927;29;20057;-78
2022/10/21 00:08:40;;;;;;;120.18;68.40;;;;;;;21.77;54.56;101053.03;4839091;29;20520;-75
2022/10/21 00:11:11;;;;;;;144.95;70.97;;;;;;;21.71;54.28;101055.75;4834283;29;20053;-77
2022/10/21 00:13:40;;;;;;;121.00;68.80;;;;;;;21.67;54.89;101060.19;4834168;29;20097;-76
2022/10/21 00:16:11;;;;;;;128.70;65.55;;;;;;;21.66;54.18;101065.47;4835350;29;20066;-74
2022/10/21 00:18:40;;;;;;;118.80;67.60;;;;;;;21.65;54.66;101067.22;4835630;29;20119;-76
2022/10/21 00:21:10;;;;;;;120.35;66.72;;;;;;;21.61;56.17;101072.56;4838212;29;20061;-78
2022/10/21 00:23:41;;;;;;;119.15;69.28;;;;;;;21.56;55.92;101069.09;4839842;29;20766;-77
2022/10/21 00:26:09;;;;;;;122.28;67.70;;;;;;;21.49;56.06;101069.16;4836175;29;20082;-75
2022/10/21 00:28:38;;;;;;;127.75;68.82;;;;;;;21.41;55.83;101071.00;4830996;29;20053;-75
2022/10/21 00:31:09;;;;;;;119.50;66.55;;;;;;;21.36;56.45;101078.03;4831108;29;20050;-80
2022/10/21 00:33:38;;;;;;;124.15;68.85;;;;;;;21.32;56.27;101071.06;4832344;29;20065;-75
2022/10/21 00:36:07;;;;;;;138.23;70.88;;;;;;;21.23;57.90;101077.25;4833972;29;20113;-78
2022/10/21 00:38:36;;;;;;;123.50;69.28;;;;;;;21.18;58.69;101086.09;4832887;29;20480;-73
2022/10/21 00:41:07;;;;;;;124.55;67.15;;;;;;;21.08;58.80;101088.81;4839191;29;20496;-71
2022/10/21 00:43:57;;;;;;;118.95;65.78;;;;;;;20.99;60.25;101091.53;4833295;29;20057;-74
2022/10/21 00:46:33;;;;;;;117.55;66.65;;;;;;;20.87;60.21;101104.78;4832078;29;20101;-74
2022/10/21 00:49:06;;;;;;;124.25;67.07;;;;;;;20.83;60.74;101108.31;4829532;29;20273;-77
2022/10/21 00:51:35;;;;;;;131.45;66.65;;;;;;;20.80;60.15;101116.22;4831322;29;20082;-77
2022/10/21 00:54:05;;;;;;;120.82;67.13;;;;;;;20.75;60.73;101120.63;4833536;29;20405;-84
2022/10/21 00:56:36;;;;;;;125.05;70.88;;;;;;;20.63;61.06;101111.94;4841664;29;20054;-86
2022/10/21 00:59:07;;;;;;;122.38;67.75;;;;;;;20.49;61.29;101103.25;4836685;29;20450;-77
2022/10/21 01:01:36;;;;;;;125.15;69.90;;;;;;;20.41;61.67;101102.41;4836334;29;20054;-86
2022/10/21 01:04:04;;;;;;;125.13;69.10;;;;;;;20.34;62.08;101098.06;4832844;29;20149;-77
2022/10/21 01:06:34;;;;;;;127.78;66.90;;;;;;;20.26;62.80;101095.47;4836168;29;20137;-77
2022/10/21 01:09:03;;;;;;;125.18;69.18;;;;;;;20.19;63.31;101099.03;4834744;29;20079;-73
2022/10/21 01:11:41;;;;;;;125.75;68.53;;;;;;;20.13;63.23;101099.91;4835241;29;20061;-75
2022/10/21 01:14:29;;;;;;;127.00;66.82;;;;;;;20.06;63.19;101091.19;4837802;29;20057;-74
2022/10/21 01:17:08;;;;;;;124.03;71.15;;;;;;;20.00;64.07;101100.88;4838649;29;20046;-75
2022/10/21 01:20:27;;;;;;;139.32;77.95;;;;;;;19.91;62.94;101093.03;4831155;29;20096;-76
2022/10/21 01:23:27;;;;;;;142.45;79.13;;;;;;;19.82;62.83;101080.78;4807143;29;20065;-76
2022/10/21 01:26:23;;;;;;;124.35;70.45;;;;;;;19.71;64.29;101069.44;4830538;29;20062;-76
2022/10/21 01:29:07;;;;;;;135.02;71.10;;;;;;;19.56;64.91;101076.47;4820182;29;20115;-76
2022/10/21 01:31:43;;;;;;;134.50;72.82;;;;;;;19.46;64.90;101087.84;4829941;29;20106;-76
2022/10/21 01:34:18;;;;;;;142.88;76.63;;;;;;;19.32;65.58;101080.00;4831581;29;21097;-78
2022/10/21 01:36:54;;;;;;;144.77;74.15;;;;;;;19.20;66.08;101091.38;4831254;29;21189;-76
2022/10/21 01:39:27;;;;;;;137.57;73.57;;;;;;;19.07;66.99;101099.25;4833633;29;20066;-76
2022/10/21 01:42:03;;;;;;;134.77;73.20;;;;;;;18.97;67.51;101101.88;4835568;29;20511;-82
2022/10/21 01:44:37;;;;;;;130.57;72.82;;;;;;;18.88;67.97;101101.00;4832674;29;20618;-76
2022/10/21 01:47:13;;;;;;;124.70;69.28;;;;;;;18.79;68.42;101100.09;4836683;29;20464;-76
2022/10/21 01:49:47;;;;;;;126.32;66.93;;;;;;;18.72;69.25;101102.69;4835822;29;20061;-74
2022/10/21 01:52:16;;;;;;;69.60;38.25;;;;;;;18.68;69.30;101100.94;4835509;29;20053;-76
2022/10/21 01:54:48;;;;;;;94.88;51.28;;;;;;;18.65;70.33;101104.44;4835646;29;20809;-74
2022/10/21 01:57:19;;;;;;;82.30;44.22;;;;;;;18.61;71.01;101111.41;4834365;29;20113;-75
2022/10/21 01:59:48;;;;;;;23.00;12.10;;;;;;;18.59;70.52;101105.28;4830727;29;20054;-74
2022/10/21 02:02:21;;;;;;;28.55;15.13;;;;;;;18.62;70.44;101102.69;4833939;29;20496;-76
2022/10/21 02:04:51;;;;;;;;;;;;;;;18.63;70.30;101106.16;4823742;29;20122;-78
2022/10/21 02:07:19;;;;;;;45.03;22.23;;;;;;;18.64;69.68;101107.91;4836535;29;19932;-74
2022/10/21 02:09:48;;;;;;;46.50;24.27;;;;;;;18.66;69.56;101115.78;4833321;29;20516;-76
2022/10/21 02:12:18;;;;;;;28.45;16.63;;;;;;;18.66;69.60;101113.16;4834422;29;20046;-72
2022/10/21 02:14:51;;;;;;;60.10;33.05;;;;;;;18.64;69.68;101105.28;4838044;29;20050;-74
2022/10/21 02:17:23;;;;;;;59.70;32.15;;;;;;;18.56;69.94;101105.28;4828861;29;20054;-75
2022/10/21 02:19:51;;;;;;;65.70;33.63;;;;;;;18.51;70.72;101111.34;4826186;29;20115;-74
2022/10/21 02:22:22;;;;;;;44.17;22.08;;;;;;;18.47;70.89;101110.50;4831537;29;20107;-74
2022/10/21 02:24:54;;;;;;;37.35;20.52;;;;;;;18.46;71.06;101108.72;4827616;29;20458;-73
2022/10/21 02:27:23;;;;;;;29.10;14.00;;;;;;;18.40;70.84;101093.88;4831088;29;20053;-75
2022/10/21 02:29:57;;;;;;;26.42;12.45;;;;;;;18.39;70.32;101088.63;4833225;29;20503;-76
2022/10/21 02:32:35;;;;;;;51.97;28.33;;;;;;;18.36;70.63;101093.88;4828787;29;20141;-73
2022/10/21 02:35:16;;;;;;;39.92;21.48;;;;;;;18.33;71.30;101101.72;4833721;29;21027;-76
2022/10/21 02:37:51;;;;;;;65.88;33.38;;;;;;;18.28;71.80;101108.66;4831248;29;20050;-74
2022/10/21 02:40:24;;;;;;;40.60;22.35;;;;;;;18.25;71.56;101117.41;4832498;29;20046;-77
2022/10/21 02:42:57;;;;;;;48.55;26.20;;;;;;;18.23;71.63;101123.50;4836764;29;20081;-73
2022/10/21 02:45:28;;;;;;;17.15;9.35;;;;;;;18.14;72.52;101121.72;4832493;29;20049;-72
2022/10/21 02:47:58;;;;;;;24.75;13.55;;;;;;;18.08;72.51;101127.81;4830540;29;20150;-73
2022/10/21 02:50:26;;;;;;;23.20;9.60;;;;;;;18.00;72.75;101121.66;4832664;29;20627;-72
2022/10/21 02:52:55;;;;;;;9.48;4.25;;;;;;;17.90;72.55;101122.50;4830953;29;20050;-72
2022/10/21 02:55:23;;;;;;;15.05;7.93;;;;;;;17.88;73.43;101130.31;4834999;29;20065;-73
2022/10/21 02:57:52;;;;;;;17.85;7.85;;;;;;;17.84;73.32;101128.56;4833740;29;20137;-73
2022/10/21 03:00:20;;;;;;;18.05;9.43;;;;;;;17.82;73.29;101124.19;4834031;29;20058;-72
2022/10/21 03:02:49;;;;;;;29.58;17.08;;;;;;;17.77;73.62;101122.41;4829582;29;20058;-72
2022/10/21 03:05:19;;;;;;;21.33;9.88;;;;;;;17.69;74.82;101116.22;4830941;29;20135;-73
2022/10/21 03:07:48;;;;;;;35.20;15.52;;;;;;;17.59;75.40;101111.78;4832923;29;20054;-73
2022/10/21 03:10:17;;;;;;;29.10;13.75;;;;;;;17.54;75.30;101113.50;4839142;29;20185;-73
2022/10/21 03:12:46;;;;;;;28.75;14.75;;;;;;;17.52;75.63;101117.84;4832562;29;20053;-74
2022/10/21 03:15:15;;;;;;;18.98;8.95;;;;;;;17.49;74.29;101123.94;4831846;29;20057;-73
2022/10/21 03:17:43;;;;;;;12.75;5.28;;;;;;;17.42;74.52;101140.47;4840634;29;20062;-74
2022/10/21 03:20:12;;;;;;;7.57;3.53;;;;;;;17.35;74.13;101129.06;4836005;29;20054;-72
2022/10/21 03:22:42;;;;;;;12.55;4.13;;;;;;;17.29;72.61;101130.78;4838223;29;20500;-72
2022/10/21 03:25:11;;;;;;;4.10;1.77;;;;;;;17.21;69.24;101125.50;4836388;29;20429;-73
2022/10/21 03:27:40;;;;;;;10.13;3.47;;;;;;;17.17;71.10;101127.19;4837816;29;20104;-75
2022/10/21 03:30:10;;;;;;;7.30;2.78;;;;;;;17.13;67.56;101122.81;4835632;29;20042;-76
2022/10/21 03:32:39;;;;;;;3.78;1.85;;;;;;;17.14;67.56;101123.69;4836228;29;20058;-75
2022/10/21 03:35:08;;;;;;;18.20;6.68;;;;;;;17.15;70.00;101120.19;4838668;29;20125;-73
2022/10/21 03:37:37;;;;;;;10.70;4.15;;;;;;;17.09;70.26;101131.50;4838078;29;20046;-73
2022/10/21 03:40:08;;;;;;;1.83;0.95;;;;;;;17.03;63.97;101125.34;4839965;29;20107;-74
2022/10/21 03:42:37;;;;;;;1.75;0.77;;;;;;;17.00;62.95;101125.31;4835710;29;20769;-73
2022/10/21 03:45:06;;;;;;;3.53;1.58;;;;;;;16.98;64.58;101135.75;4837541;29;20102;-73
2022/10/21 03:47:34;;;;;;;2.20;0.65;;;;;;;16.92;61.84;101128.72;4834287;29;20054;-74
2022/10/21 03:50:03;;;;;;;1.63;0.85;;;;;;;16.90;61.98;101129.56;4833373;29;20496;-74
2022/10/21 03:52:31;;;;;;;2.92;1.15;;;;;;;16.90;63.76;101135.66;4839235;29;20102;-74
2022/10/21 03:55:00;;;;;;;4.72;2.55;;;;;;;16.89;66.15;101131.31;4842265;29;20049;-73
2022/10/21 03:57:30;;;;;;;3.08;1.15;;;;;;;16.84;64.37;101126.91;4839068;29;20053;-72
2022/10/21 03:59:58;;;;;;;4.55;1.13;;;;;;;16.81;66.00;101130.34;4837531;29;20057;-73
2022/10/21 04:02:27;;;;;;;5.38;1.95;;;;;;;16.76;65.09;101132.00;4834199;29;20054;-76
2022/10/21 04:04:55;;;;;;;3.78;1.33;;;;;;;16.71;62.00;101125.88;4834600;29;20065;-74
2022/10/21 04:07:24;;;;;;;2.30;1.02;;;;;;;16.68;60.68;101116.25;4837264;29;20054;-75
2022/10/21 04:09:52;;;;;;;3.08;1.20;;;;;;;16.69;61.91;101119.75;4833588;29;20325;-73
2022/10/21 04:12:21;;;;;;;14.52;2.83;;;;;;;16.68;67.22;101124.09;4831992;29;20042;-73
2022/10/21 04:14:51;;;;;;;3.38;1.48;;;;;;;16.60;66.35;101122.25;4835753;29;20446;-75
2022/10/21 04:17:20;;;;;;;3.35;1.25;;;;;;;16.52;62.97;101120.44;4832235;29;20042;-74
2022/10/21 04:19:48;;;;;;;1.92;0.60;;;;;;;16.47;63.79;101118.63;4836981;29;20050;-72
2022/10/21 04:22:17;;;;;;;1.40;0.50;;;;;;;16.40;62.43;101120.31;4837385;29;20058;-72
2022/10/21 04:24:45;;;;;;;1.15;0.57;;;;;;;16.37;64.01;101117.66;4838549;29;20054;-73
2022/10/21 04:27:14;;;;;;;2.50;0.57;;;;;;;16.27;54.71;101107.97;4829964;29;20057;-74
2022/10/21 04:29:42;;;;;;;0.47;0.22;;;;;;;16.29;54.38;101114.97;4840271;29;20049;-73
2022/10/21 04:32:12;;;;;;;1.35;0.25;;;;;;;16.34;56.76;101107.19;4832294;29;20061;-73
2022/10/21 04:34:41;;;;;;;0.60;0.40;;;;;;;16.38;55.50;101108.06;4842150;29;20726;-76
2022/10/21 04:37:17;;;;;;;0.65;0.30;;;;;;;16.37;55.18;101112.44;4837210;29;20045;-73
2022/10/21 04:39:45;;;;;;;0.80;0.40;;;;;;;16.37;56.27;101098.50;4837580;29;20713;-72
2022/10/21 04:42:14;;;;;;;0.25;0.13;;;;;;;16.27;54.11;101087.97;4837706;29;20094;-72
2022/10/21 04:44:42;;;;;;;2.10;0.32;;;;;;;16.35;55.61;101106.31;4835931;29;20057;-72
2022/10/21 04:47:12;;;;;;;1.25;0.22;;;;;;;16.33;56.12;101114.16;4834541;29;20525;-72
2022/10/21 04:49:41;;;;;;;0.30;0.30;;;;;;;16.32;54.11;101117.59;4835150;29;20054;-72
2022/10/21 04:52:09;;;;;;;0.38;0.22;;;;;;;16.30;55.41;101111.47;4835293;29;20054;-72
2022/10/21 04:54:38;;;;;;;0.22;0.10;;;;;;;16.29;51.99;101101.03;4835678;29;20050;-73
2022/10/21 04:57:06;;;;;;;2.00;0.40;;;;;;;16.30;54.93;101103.66;4833745;29;20046;-72
2022/10/21 04:59:35;;;;;;;1.17;0.32;;;;;;;16.30;53.52;101121.06;4834498;29;20125;-72
2022/10/21 05:02:03;;;;;;;2.40;0.35;;;;;;;16.29;52.32;101125.41;4836714;29;20496;-72
2022/10/21 05:04:33;;;;;;;0.28;0.20;;;;;;;16.25;48.95;101120.13;4836528;29;20110;-73
2022/10/21 05:07:02;;;;;;;0.30;0.22;;;;;;;16.27;49.75;101123.66;4834137;29;20061;-71
2022/10/21 05:09:30;;;;;;;0.28;0.20;;;;;;;16.23;50.94;101137.50;4833258;29;20102;-72
2022/10/21 05:11:59;;;;;;;0.17;0.17;;;;;;;16.22;50.50;101143.59;4832518;29;20067;-72
2022/10/21 05:14:27;;;;;;;0.32;0.20;;;;;;;16.19;49.98;101146.16;4834508;29;20050;-72
2022/10/21 05:16:56;;;;;;;0.20;0.17;;;;;;;16.12;49.22;101140.84;4832810;29;20058;-72
2022/10/21 05:19:25;;;;;;;0.98;0.30;;;;;;;16.13;47.60;101144.34;4836099;29;20049;-71
2022/10/21 05:21:55;;;;;;;1.23;0.30;;;;;;;16.11;48.25;101146.06;4838343;29;20053;-73
2022/10/21 05:24:23;;;;;;;5.78;0.47;;;;;;;16.07;43.54;101142.53;4836401;29;20053;-73
2022/10/21 05:26:52;;;;;;;0.35;0.25;;;;;;;16.08;47.96;101144.28;4835492;29;20049;-72
2022/10/21 05:29:21;;;;;;;0.43;0.22;;;;;;;16.06;45.51;101152.97;4836963;29;20138;-72
2022/10/21 05:31:49;;;;;;;0.65;0.30;;;;;;;16.02;44.63;101161.59;4834599;29;20053;-72
2022/10/21 05:34:18;;;;;;;1.13;0.10;;;;;;;15.97;45.43;101158.94;4834056;29;20045;-73
2022/10/21 05:36:54;;;;;;;0.20;0.08;;;;;;;15.94;44.13;101150.16;4833924;29;20073;-73
2022/10/21 05:39:24;;;;;;;2.25;0.30;;;;;;;15.89;43.61;101152.72;4833186;29;20114;-73
2022/10/21 05:41:52;;;;;;;1.30;0.47;;;;;;;15.81;43.52;101143.94;4831508;29;20061;-72
2022/10/21 05:44:21;;;;;;;2.40;0.45;;;;;;;15.78;46.32;101126.50;4834339;29;20110;-74
2022/10/21 05:46:49;;;;;;;3.95;0.20;;;;;;;15.77;44.94;101139.50;4832142;29;20049;-73
2022/10/21 05:49:18;;;;;;;0.30;0.10;;;;;;;15.64;45.74;101121.03;4835256;29;20110;-73
2022/10/21 05:51:46;;;;;;;0.63;0.30;;;;;;;15.69;46.50;101129.81;4833311;29;20835;-72
2022/10/21 05:54:15;;;;;;;0.20;0.15;;;;;;;15.66;44.94;101137.56;4835578;29;20520;-73
2022/10/21 05:56:46;;;;;;;4.47;0.43;;;;;;;15.61;43.91;101127.94;4835983;29;20077;-74
2022/10/21 05:59:16;;;;;;;1.10;0.20;;;;;;;15.59;45.86;101132.25;4832081;29;20054;-72
2022/10/21 06:01:44;;;;;;;0.43;0.25;;;;;;;15.55;47.89;101122.63;4827410;29;20481;-72
2022/10/21 06:04:13;;;;;;;0.00;0.00;;;;;;;15.51;45.86;101137.38;4826749;29;20054;-73
2022/10/21 06:06:41;;;;;;;0.30;0.20;;;;;;;15.47;47.06;101135.56;4830216;29;20087;-74
2022/10/21 06:09:10;;;;;;;0.65;0.20;;;;;;;15.44;46.51;101135.53;4829263;29;20119;-74
2022/10/21 06:11:38;;;;;;;1.33;0.45;;;;;;;15.39;47.28;101134.53;4832688;29;20895;-72
2022/10/21 06:14:08;;;;;;;4.75;0.40;;;;;;;15.33;47.55;101126.66;4831925;29;20496;-73
2022/10/21 06:16:37;;;;;;;1.00;0.22;;;;;;;15.26;46.34;101123.94;4834378;29;20054;-74
2022/10/21 06:19:05;;;;;;;2.30;0.32;;;;;;;15.21;45.82;101127.31;4837632;29;20060;-74
2022/10/21 06:21:34;;;;;;;0.40;0.35;;;;;;;15.20;44.89;101131.66;4835180;29;20485;-74
2022/10/21 06:24:02;;;;;;;0.10;0.10;;;;;;;15.18;46.01;101125.53;4834130;29;20062;-73
2022/10/21 06:26:31;;;;;;;0.35;0.20;;;;;;;15.11;46.16;101105.44;4835478;29;20066;-72
2022/10/21 06:28:59;;;;;;;1.88;0.22;;;;;;;14.92;46.84;101083.41;4834782;29;21020;-73
2022/10/21 06:31:29;;;;;;;0.20;0.15;;;;;;;14.95;49.58;101096.47;4831781;29;20049;-73
2022/10/21 06:33:58;;;;;;;0.52;0.30;;;;;;;14.93;48.64;101097.31;4833673;29;20495;-74
2022/10/21 06:36:26;;;;;;;0.55;0.20;;;;;;;14.90;46.81;101089.44;4834943;29;20054;-73
2022/10/21 06:38:55;;;;;;;0.52;0.30;;;;;;;14.84;45.90;101085.88;4833215;29;20054;-76
2022/10/21 06:41:23;;;;;;;1.65;0.30;;;;;;;14.81;47.56;101093.63;4834395;29;20057;-75
2022/10/21 06:43:52;;;;;;;1.13;0.38;;;;;;;14.79;47.92;101103.16;4840761;29;20121;-74
2022/10/21 06:46:21;;;;;;;0.20;0.20;;;;;;;14.77;46.50;101117.88;4832089;29;20137;-76
2022/10/21 06:48:51;;;;;;;0.75;0.30;;;;;;;14.75;46.82;101132.63;4830953;29;20050;-76
2022/10/21 06:51:21;;;;;;;2.92;0.52;;;;;;;14.73;45.50;101143.84;4828948;29;21163;-75
2022/10/21 06:53:54;;;;;;;1.33;0.30;;;;;;;14.71;46.19;101155.97;4831044;29;20118;-75
2022/10/21 06:56:23;;;;;;;0.40;0.32;;;;;;;14.69;43.22;101158.53;4832155;29;20095;-76
2022/10/21 06:58:52;;;;;;;2.28;0.43;;;;;;;14.71;43.33;101159.44;4824257;29;20047;-77
2022/10/21 07:01:22;;;;;;;0.82;0.45;;;;;;;14.73;43.44;101152.53;4823625;29;20116;-74
2022/10/21 07:03:53;;;;;;;1.33;0.45;;;;;;;14.74;43.05;101135.19;4815759;29;20081;-76
2022/10/21 07:06:21;;;;;;;0.30;0.10;;;;;;;14.75;42.66;101134.31;4833304;29;20054;-74
2022/10/21 07:08:50;;;;;;;0.38;0.20;;;;;;;14.76;49.41;101142.16;4827296;29;20061;-76
2022/10/21 07:11:18;;;;;;;3.22;0.32;;;;;;;14.72;45.18;101155.09;4827415;29;20054;-79
2022/10/21 07:13:47;;;;;;;0.57;0.40;;;;;;;14.69;44.42;101168.97;4834883;29;20595;-77
2022/10/21 07:16:19;;;;;;;1.20;0.63;;;;;;;14.68;44.15;101182.81;4832698;29;20054;-76
2022/10/21 07:18:48;;;;;;;0.25;0.25;;;;;;;14.67;44.71;101191.50;4831615;29;20651;-76
2022/10/21 07:21:20;;;;;;;2.25;0.50;;;;;;;14.60;42.89;101189.63;4831481;29;20054;-73
2022/10/21 07:23:50;;;;;;;0.97;0.33;;;;;;;14.61;46.55;101197.47;4834163;29;20054;-74
2022/10/21 07:26:20;;;;;;;1.65;0.45;;;;;;;14.59;45.25;101190.44;4827710;29;20047;-75
2022/10/21 07:28:49;;;;;;;1.65;0.50;;;;;;;14.60;44.66;101179.19;4833159;29;20054;-74
2022/10/21 07:31:19;;;;;;;1.35;0.43;;;;;;;14.61;42.91;101181.84;4828053;29;20593;-75
2022/10/21 07:33:48;;;;;;;3.45;0.50;;;;;;;14.65;43.01;101174.94;4828894;29;20497;-75
2022/10/21 07:36:20;;;;;;;1.30;0.40;;;;;;;14.68;43.29;101171.53;4831344;29;20061;-75
2022/10/21 07:38:50;;;;;;;4.40;0.63;;;;;;;14.71;46.79;101161.19;4831924;29;20518;-75
2022/10/21 07:41:21;;;;;;;1.15;0.47;;;;;;;14.62;43.13;101151.47;4831607;29;20050;-75
2022/10/21 07:43:50;;;;;;;0.57;0.38;;;;;;;14.65;42.07;101147.16;4833499;29;20046;-77
2022/10/21 07:46:20;;;;;;;1.45;0.65;;;;;;;14.69;42.20;101150.72;4828013;29;20082;-76
2022/10/21 07:48:48;;;;;;;1.45;0.30;;;;;;;14.72;44.36;101140.34;4833256;29;20709;-76
2022/10/21 07:51:20;;;;;;;1.55;0.50;;;;;;;14.69;48.32;101135.09;4830606;29;20050;-75
2022/10/21 07:53:50;;;;;;;0.60;0.47;;;;;;;14.63;45.04;101132.38;4832830;29;20516;-73
2022/10/21 07:56:20;;;;;;;2.15;0.55;;;;;;;14.58;46.85;101121.00;4831049;29;20061;-73
2022/10/21 07:58:49;;;;;;;0.65;0.22;;;;;;;14.54;45.58;101129.56;4834071;29;20053;-76
2022/10/21 08:01:19;;;;;;;0.40;0.30;;;;;;;14.52;45.62;101131.25;4832464;29;20053;-76
2022/10/21 08:03:48;;;;;;;1.15;0.57;;;;;;;14.45;44.16;101125.94;4828788;29;20050;-76
2022/10/21 08:06:18;;;;;;;0.55;0.52;;;;;;;14.39;44.47;101138.84;4835855;29;20061;-75
2022/10/21 08:08:47;;;;;;;0.30;0.20;;;;;;;14.35;44.29;101126.59;4839755;29;20580;-75
2022/10/21 08:11:22;;;;;;;2.38;0.73;;;;;;;14.32;43.96;101116.13;4838154;29;20288;-75
2022/10/21 08:13:51;;;;;;;2.30;0.57;;;;;;;14.29;43.04;101110.84;4839409;29;20057;-76
2022/10/21 08:16:20;;;;;;;2.15;0.45;;;;;;;14.29;44.28;101105.63;4837766;29;20520;-73
2022/10/21 08:18:48;;;;;;;2.72;0.35;;;;;;;14.27;46.97;101102.16;4837014;29;20393;-75
2022/10/21 08:21:19;;;;;;;1.80;0.47;;;;;;;14.25;46.78;101094.31;4832256;29;20191;-75
2022/10/21 08:23:47;;;;;;;1.48;0.50;;;;;;;14.21;47.01;101087.28;4833875;29;20057;-76
2022/10/21 08:26:17;;;;;;;2.13;0.43;;;;;;;14.16;47.46;101099.31;4835552;29;20069;-77
2022/10/21 08:28:45;;;;;;;3.53;0.50;;;;;;;14.11;47.17;101107.88;4833987;29;20680;-77
2022/10/21 08:31:17;;;;;;;0.20;0.20;;;;;;;14.05;46.79;101121.66;4832467;29;20485;-77
2022/10/21 08:33:46;;;;;;;3.70;0.30;;;;;;;13.97;46.30;101124.09;4827642;29;20127;-76
2022/10/21 08:36:17;;;;;;;4.43;0.68;;;;;;;13.89;45.69;101125.63;4825546;29;20454;-76
2022/10/21 08:38:47;;;;;;;2.08;0.30;;;;;;;13.81;45.97;101135.88;4830521;29;20496;-75
2022/10/21 08:41:53;;;;;;;3.03;0.57;;;;;;;13.74;47.13;101135.69;4832174;29;20543;-77
2022/10/21 08:44:31;;;;;;;0.35;0.20;;;;;;;13.67;46.65;101154.59;4826932;29;20049;-75
2022/10/21 08:47:07;;;;;;;1.45;0.57;;;;;;;13.60;46.99;101159.66;4834544;29;20058;-75
2022/10/21 08:49:50;;;;;;;2.08;0.30;;;;;;;13.48;47.19;101148.09;4832551;29;20046;-75
2022/10/21 08:52:22;;;;;;;1.38;0.60;;;;;;;13.46;48.09;101168.84;4828020;29;20046;-75
2022/10/21 08:54:58;;;;;;;0.30;0.17;;;;;;;13.34;47.71;101165.97;4834799;29;20611;-75
2022/10/21 08:57:27;;;;;;;1.40;0.50;;;;;;;13.26;47.93;101173.50;4836803;29;20065;-75
2022/10/21 08:59:56;;;;;;;1.27;0.63;;;;;;;13.21;47.72;101165.59;4837159;29;20053;-75
2022/10/21 09:02:44;;;;;;;4.53;0.82;;;;;;;13.15;47.84;101162.88;4834362;29;20547;-75
2022/10/21 09:05:36;;;;;;;5.28;0.77;;;;;;;13.09;47.93;101169.63;4835145;29;20058;-75
2022/10/21 09:08:17;;;;;;;4.35;0.52;;;;;;;13.00;48.95;101170.25;4827310;29;20062;-76
2022/10/21 09:11:01;;;;;;;0.52;0.40;;;;;;;12.95;48.76;101156.28;4832572;29;20058;-75
2022/10/21 09:13:51;;;;;;;3.92;0.60;;;;;;;12.83;49.64;101148.16;4834808;29;20141;-74
2022/10/21 09:16:27;;;;;;;1.27;0.40;;;;;;;12.76;50.16;101140.22;4837002;29;20079;-75
2022/10/21 09:19:07;;;;;;;2.75;0.63;;;;;;;12.75;49.96;101169.59;4834044;29;20674;-75
2022/10/21 09:21:51;;;;;;;1.50;0.60;;;;;;;12.65;49.52;101151.16;4836192;29;20046;-77
2022/10/21 09:24:26;;;;;;;2.55;0.50;;;;;;;12.73;49.58;101175.59;4836737;29;20054;-75
2022/10/21 09:26:57;;;;;;;1.33;0.38;;;;;;;12.69;49.29;101169.44;4831038;29;20065;-75
2022/10/21 09:29:31;;;;;;;0.67;0.40;;;;;;;12.68;49.80;101178.06;4834592;29;20049;-75
2022/10/21 09:32:10;;;;;;;0.80;0.40;;;;;;;12.66;49.54;101184.06;4833049;29;20523;-76
2022/10/21 09:34:50;;;;;;;3.10;0.57;;;;;;;12.61;50.86;101173.53;4838533;29;20046;-75
2022/10/21 09:37:31;;;;;;;1.52;0.43;;;;;;;12.52;52.74;101157.72;4827761;29;20066;-76
2022/10/21 09:40:07;;;;;;;3.13;0.50;;;;;;;12.46;52.02;101157.53;4828472;29;20066;-76
2022/10/21 09:42:37;;;;;;;6.60;0.68;;;;;;;12.38;53.33;101154.72;4832538;29;20050;-77
2022/10/21 09:45:14;;;;;;;1.02;0.40;;;;;;;12.32;52.74;101152.84;4837640;29;20045;-75
2022/10/21 09:47:43;;;;;;;6.60;0.55;;;;;;;12.26;53.50;101149.19;4835333;29;20053;-76
2022/10/21 09:50:17;;;;;;;1.52;0.40;;;;;;;12.21;52.42;101143.88;4830936;29;20510;-76
2022/10/21 09:52:53;;;;;;;4.38;0.85;;;;;;;12.19;52.47;101149.84;4828964;29;20057;-76
2022/10/21 09:55:22;;;;;;;0.65;0.50;;;;;;;12.18;51.97;101148.94;4835844;29;20053;-76
2022/10/21 09:58:01;;;;;;;2.78;0.90;;;;;;;12.14;51.30;101142.81;4824637;29;20509;-76
2022/10/21 10:00:48;;;;;;;2.70;0.40;;;;;;;12.07;52.79;101133.09;4832846;29;20164;-75
2022/10/21 10:03:34;;;;;;;2.97;0.60;;;;;;;12.01;55.83;101129.44;4834430;29;20054;-74
2022/10/21 10:06:04;;;;;;;0.75;0.40;;;;;;;11.95;55.31;101133.59;4836902;29;20421;-76
2022/10/21 10:08:37;;;;;;;2.10;0.50;;;;;;;11.93;54.53;101126.59;4833808;29;20050;-76
2022/10/21 10:11:11;;;;;;;;;;;;;;;11.91;53.63;101112.69;4834125;29;20711;-76
2022/10/21 10:13:43;;;;;;;2.22;0.95;;;;;;;11.88;52.94;101116.09;4833246;29;19950;-76
2022/10/21 10:16:28;;;;;;;1.55;0.60;;;;;;;11.75;52.52;101101.00;4832146;29;20617;-77
2022/10/21 10:19:15;;;;;;;2.00;0.63;;;;;;;11.81;52.37;101132.25;4835053;29;20068;-76
2022/10/21 10:21:44;;;;;;;1.40;0.60;;;;;;;11.76;53.34;101152.00;4836955;29;20059;-76
2022/10/21 10:24:18;;;;;;;4.00;0.73;;;;;;;11.71;53.70;101153.56;4834350;29;20589;-77
2022/10/21 10:26:47;;;;;;;5.05;0.68;;;;;;;11.66;53.35;101152.53;4833691;29;20052;-77
2022/10/21 10:29:26;;;;;;;1.85;0.40;;;;;;;11.59;53.38;101161.84;4832256;29;20118;-76
2022/10/21 10:31:57;;;;;;;2.22;0.43;;;;;;;11.52;54.42;101163.34;4832015;29;20606;-76
2022/10/21 10:34:31;;;;;;;1.63;0.80;;;;;;;11.48;54.84;101164.09;4830222;29;20045;-76
2022/10/21 10:37:06;;;;;;;6.13;0.90;;;;;;;11.42;54.52;101163.88;4830227;29;20127;-75
2022/10/21 10:39:39;;;;;;;5.40;0.50;;;;;;;11.39;54.29;101168.09;4836183;29;20054;-76
2022/10/21 10:42:08;;;;;;;;;;;;;;;11.37;55.04;101164.56;4834212;29;20467;-75
2022/10/21 10:44:41;;;;;;;1.42;0.70;;;;;;;11.34;55.77;101175.72;4833538;29;19932;-75
2022/10/21 10:47:21;;;;;;;1.75;0.68;;;;;;;11.30;54.66;101173.84;4832496;29;20069;-76
2022/10/21 10:49:51;;;;;;;3.50;0.50;;;;;;;11.27;55.24;101181.50;4835056;29;20541;-77
2022/10/21 10:52:23;;;;;;;2.10;0.50;;;;;;;11.24;55.17;101177.09;4831495;29;20539;-76
2022/10/21 10:55:16;;;;;;;1.33;0.60;;;;;;;11.19;55.52;101165.72;4833977;29;20497;-76
2022/10/21 10:57:50;;;;;;;0.93;0.50;;;;;;;11.16;56.11;101164.75;4836345;29;20080;-76
2022/10/21 11:00:22;;;;;;;0.38;0.20;;;;;;;11.11;56.18;101157.69;4829759;29;20431;-76
2022/10/21 11:03:00;;;;;;;1.73;0.50;;;;;;;11.08;56.79;101157.56;4832023;29;20113;-75
2022/10/21 11:05:35;;;;;;;1.38;0.40;;;;;;;11.04;56.92;101145.38;4830457;29;20496;-76
2022/10/21 11:08:14;;;;;;;2.80;0.60;;;;;;;10.99;57.37;101136.53;4834502;29;20052;-76
2022/10/21 11:10:47;;;;;;;0.63;0.28;;;;;;;10.94;57.84;101132.94;4832577;29;20053;-77
2022/10/21 11:13:18;;;;;;;0.80;0.60;;;;;;;10.93;57.88;101127.72;4835232;29;20062;-77
2022/10/21 11:16:00;;;;;;;2.78;0.63;;;;;;;10.88;58.11;101119.75;4832879;29;20113;-77
2022/10/21 11:18:35;;;;;;;1.15;0.28;;;;;;;10.79;58.31;101122.03;4833840;29;20525;-77
2022/10/21 11:21:11;;;;;;;0.95;0.50;;;;;;;10.75;58.52;101117.59;4838095;29;20049;-76
2022/10/21 11:23:59;;;;;;;3.03;0.20;;;;;;;10.73;59.41;101119.25;4835149;29;20585;-76
2022/10/21 11:26:41;;;;;;;1.15;0.40;;;;;;;10.71;58.97;101120.91;4830168;29;20115;-76
2022/10/21 11:29:28;;;;;;;0.50;0.40;;;;;;;10.69;58.36;101115.66;4833021;29;20138;-76
2022/10/21 11:32:06;;;;;;;1.33;0.40;;;;;;;10.66;59.30;101110.41;4829696;29;20050;-76
2022/10/21 11:34:51;;;;;;;2.20;0.52;;;;;;;10.64;60.08;101099.97;4835624;29;20046;-75
2022/10/21 11:37:29;;;;;;;2.75;0.82;;;;;;;10.62;59.45;101101.63;4833241;29;20129;-76
2022/10/21 11:40:03;;;;;;;1.10;0.45;;;;;;;10.60;59.60;101089.47;4835426;29;20062;-76
2022/10/21 11:42:41;;;;;;;4.38;0.50;;;;;;;10.57;60.14;101095.44;4836297;29;20054;-76